Terminal Aerodrome Forecast
Issued by NWS St Louis, MO

Home | Current Version | Previous Version | Text Only | Print | Product List | Glossary On
Versions: 1 2 3 4 5 6 7 8 9 10 11 12 13 14 15 16 17 18 19 20
387
FTUS43 KLSX 211134
TAFSTL
TAF
KSTL 211134Z 2112/2218 35005KT P6SM VCSH BKN150
     FM211600 04007KT P6SM BKN120
     FM212200 04007KT P6SM VCSH OVC080
     FM220400 06009KT P6SM -SHRA OVC045
     FM221100 05009KT 6SM -SHRA OVC030
     FM221300 05009KT 6SM RA OVC015=

USA.gov is the U.S. government's official web portal to all federal, state and local government web resources and services.